createdAt,value
2018-04-23T00:02:13.861Z,14.02
2018-04-23T00:04:41.394Z,13.95
2018-04-23T00:07:08.928Z,13.88
2018-04-23T00:09:36.609Z,13.87
2018-04-23T00:12:04.211Z,13.78
2018-04-23T00:14:31.745Z,13.75
2018-04-23T00:16:59.464Z,13.69
2018-04-23T00:19:27.036Z,13.69
2018-04-23T00:21:54.583Z,13.69
2018-04-23T00:24:22.304Z,13.59
2018-04-23T00:26:49.844Z,13.59
2018-04-23T00:29:17.396Z,13.53
2018-04-23T00:31:44.987Z,13.50
2018-04-23T00:34:12.553Z,13.50
2018-04-23T00:36:40.098Z,13.55
2018-04-23T00:39:07.763Z,13.67
2018-04-23T00:41:35.293Z,13.80
2018-04-23T00:44:02.846Z,13.86
2018-04-23T00:46:30.432Z,13.83
2018-04-23T00:48:57.965Z,13.84
2018-04-23T00:51:25.555Z,13.74
2018-04-23T00:53:53.131Z,13.64
2018-04-23T00:56:20.682Z,13.58
2018-04-23T00:58:48.224Z,13.55
2018-04-23T01:01:15.811Z,13.48
2018-04-23T01:03:43.375Z,13.41
2018-04-23T01:06:10.901Z,13.35
2018-04-23T01:08:38.481Z,13.35
2018-04-23T01:11:06.047Z,13.27
2018-04-23T01:13:33.598Z,13.20
2018-04-23T01:16:01.487Z,13.15
2018-04-23T01:18:29.046Z,13.11
2018-04-23T01:20:56.590Z,13.07
2018-04-23T01:23:24.173Z,12.98
2018-04-23T01:25:51.703Z,12.91
2018-04-23T01:28:19.233Z,12.83
2018-04-23T01:30:46.800Z,12.76
2018-04-23T01:33:14.341Z,12.70
2018-04-23T01:35:41.871Z,12.65
2018-04-23T01:38:09.670Z,12.62
2018-04-23T01:40:37.224Z,12.57
2018-04-23T01:43:04.758Z,12.52
2018-04-23T01:45:32.344Z,12.48
2018-04-23T01:47:59.882Z,12.43
2018-04-23T01:50:27.429Z,12.38
2018-04-23T01:52:55.150Z,12.31
2018-04-23T01:55:22.687Z,12.28
2018-04-23T01:57:50.223Z,12.23
2018-04-23T02:00:17.932Z,12.18
2018-04-23T02:02:45.512Z,12.14
2018-04-23T02:05:13.046Z,12.10
2018-04-23T02:07:40.626Z,12.07
2018-04-23T02:10:08.177Z,12.04
2018-04-23T02:12:35.749Z,12.02
2018-04-23T02:15:03.308Z,11.97
2018-04-23T02:17:30.839Z,11.97
2018-04-23T02:19:58.391Z,11.99
2018-04-23T02:22:26.105Z,11.95
2018-04-23T02:24:53.647Z,11.91
2018-04-23T02:27:21.198Z,11.85
2018-04-23T02:29:48.916Z,11.86
2018-04-23T02:32:16.450Z,11.81
2018-04-23T02:34:43.998Z,11.76
2018-04-23T02:37:11.569Z,11.75
2018-04-23T02:39:39.124Z,11.71
2018-04-23T02:42:06.677Z,11.68
2018-04-23T02:44:34.219Z,11.68
2018-04-23T02:47:01.769Z,11.70
2018-04-23T02:49:29.652Z,11.70
2018-04-23T02:51:57.204Z,11.64
2018-04-23T02:54:24.765Z,11.64
2018-04-23T02:56:52.362Z,11.55
2018-04-23T02:59:19.916Z,11.54
2018-04-23T03:01:47.467Z,11.50
2018-04-23T03:04:15.061Z,11.49
2018-04-23T03:06:42.608Z,11.46
2018-04-23T03:09:10.165Z,11.47
2018-04-23T03:11:37.742Z,11.48
2018-04-23T03:14:05.280Z,11.49
2018-04-23T03:16:32.851Z,11.46
2018-04-23T03:19:00.580Z,11.45
2018-04-23T03:21:28.118Z,11.44
2018-04-23T03:23:55.698Z,11.41
2018-04-23T03:26:23.288Z,11.38
2018-04-23T03:28:50.838Z,11.35
2018-04-23T03:31:18.381Z,11.35
2018-04-23T03:33:46.015Z,11.42
2018-04-23T03:36:13.552Z,11.34
2018-04-23T03:38:41.120Z,11.39
2018-04-23T03:41:08.722Z,11.55
2018-04-23T03:43:36.276Z,12.05
2018-04-23T03:46:03.819Z,12.82
2018-04-23T03:48:31.706Z,13.83
2018-04-23T03:50:59.343Z,14.99
2018-04-23T03:53:26.899Z,16.21
2018-04-23T03:55:54.470Z,17.49
2018-04-23T03:58:22.017Z,18.84
2018-04-23T04:00:49.562Z,20.23
2018-04-23T04:03:17.133Z,20.95
2018-04-23T04:05:44.706Z,22.40
2018-04-23T04:08:12.251Z,23.42
2018-04-23T04:10:39.936Z,24.19
2018-04-23T04:13:19.002Z,25.42
2018-04-23T04:15:58.326Z,26.62
2018-04-23T04:18:37.645Z,27.27
2018-04-23T04:21:05.520Z,27.61
2018-04-23T04:23:33.979Z,28.10
2018-04-23T04:26:01.545Z,28.82
2018-04-23T04:28:29.267Z,30.29
2018-04-23T04:30:56.832Z,31.10
2018-04-23T04:33:24.371Z,32.28
2018-04-23T04:35:52.231Z,32.89
2018-04-23T04:38:19.831Z,33.39
2018-04-23T04:40:47.348Z,33.11
2018-04-23T04:43:14.913Z,33.98
2018-04-23T04:45:42.452Z,34.14
2018-04-23T04:48:10.029Z,35.29
2018-04-23T04:50:37.579Z,35.52
2018-04-23T04:53:05.121Z,35.76
2018-04-23T04:55:32.709Z,35.55
2018-04-23T04:58:00.277Z,35.54
2018-04-23T05:00:27.811Z,36.10
2018-04-23T05:02:55.423Z,36.61
2018-04-23T05:05:22.984Z,37.22
2018-04-23T05:07:50.541Z,37.67
2018-04-23T05:10:18.126Z,37.93
2018-04-23T05:12:45.681Z,37.16
2018-04-23T05:15:13.238Z,37.77
2018-04-23T05:17:40.934Z,37.18
2018-04-23T05:20:08.507Z,37.59
2018-04-23T05:22:36.048Z,37.37
2018-04-23T05:25:03.739Z,37.64
2018-04-23T05:27:31.338Z,36.81
2018-04-23T05:29:58.893Z,37.61
2018-04-23T05:32:26.504Z,37.03
2018-04-23T05:34:54.052Z,36.43
2018-04-23T05:37:21.616Z,35.16
2018-04-23T05:39:49.339Z,33.61
2018-04-23T05:42:16.904Z,32.48
2018-04-23T05:44:44.457Z,31.89
2018-04-23T05:47:12.352Z,30.75
2018-04-23T05:49:39.939Z,29.86
2018-04-23T05:52:07.481Z,28.96
2018-04-23T05:54:35.065Z,28.64
2018-04-23T05:57:02.621Z,27.38
2018-04-23T05:59:30.170Z,26.94
2018-04-23T06:01:57.847Z,27.01
2018-04-23T06:04:25.428Z,27.16
2018-04-23T06:06:53.022Z,26.87
2018-04-23T06:09:20.612Z,27.24
2018-04-23T06:11:48.165Z,27.32
2018-04-23T06:14:15.717Z,27.25
2018-04-23T06:16:43.314Z,27.37
2018-04-23T06:19:10.857Z,27.32
2018-04-23T06:21:38.406Z,27.15
2018-04-23T06:24:06.077Z,26.69
2018-04-23T06:26:33.625Z,27.09
2018-04-23T06:29:01.163Z,27.17
2018-04-23T06:31:28.751Z,27.50
2018-04-23T06:33:56.302Z,28.01
2018-04-23T06:36:23.868Z,28.24
2018-04-23T06:38:51.468Z,28.21
2018-04-23T06:41:19.016Z,28.07
2018-04-23T06:43:46.575Z,28.03
2018-04-23T06:46:14.173Z,28.01
2018-04-23T06:48:41.722Z,28.10
2018-04-23T06:51:09.258Z,28.27
2018-04-23T06:53:36.945Z,28.55
2018-04-23T06:56:04.501Z,28.51
2018-04-23T06:58:32.055Z,28.50
2018-04-23T07:00:59.772Z,28.48
2018-04-23T07:03:27.343Z,28.59
2018-04-23T07:05:54.900Z,28.61
2018-04-23T07:08:22.491Z,28.76
2018-04-23T07:10:50.036Z,28.80
2018-04-23T07:13:17.605Z,28.84
2018-04-23T07:15:45.198Z,28.53
2018-04-23T07:18:12.753Z,28.54
2018-04-23T07:20:40.301Z,28.45
2018-04-23T07:23:08.060Z,28.48
2018-04-23T07:25:35.595Z,28.45
2018-04-23T07:28:03.137Z,28.65
2018-04-23T07:30:30.720Z,28.85
2018-04-23T07:32:58.284Z,29.03
2018-04-23T07:35:25.851Z,29.16
2018-04-23T07:37:53.523Z,29.08
2018-04-23T07:40:21.080Z,28.84
2018-04-23T07:42:48.619Z,28.81
2018-04-23T07:45:16.173Z,28.76
2018-04-23T07:47:43.742Z,28.90
2018-04-23T07:50:11.338Z,28.77
2018-04-23T07:52:38.885Z,28.76
2018-04-23T07:55:06.425Z,28.61
2018-04-23T07:57:34.008Z,28.47
2018-04-23T08:00:01.615Z,27.98
2018-04-23T08:02:29.124Z,27.85
2018-04-23T08:04:57.008Z,27.71
2018-04-23T08:07:24.564Z,27.66
2018-04-23T08:09:52.128Z,27.19
2018-04-23T08:12:19.856Z,27.21
2018-04-23T08:14:47.403Z,27.19
2018-04-23T08:17:14.989Z,27.11
2018-04-23T08:19:42.877Z,27.04
2018-04-23T08:22:10.422Z,27.14
2018-04-23T08:24:37.966Z,27.08
2018-04-23T08:27:05.842Z,27.10
2018-04-23T08:29:33.388Z,27.12
2018-04-23T08:32:00.949Z,26.97
2018-04-23T08:34:28.538Z,26.93
2018-04-23T08:36:56.104Z,26.92
2018-04-23T08:39:23.700Z,26.94
2018-04-23T08:41:51.284Z,26.90
2018-04-23T08:44:18.832Z,26.75
2018-04-23T08:46:46.381Z,26.80
2018-04-23T08:49:13.967Z,26.67
2018-04-23T08:51:41.503Z,26.63
2018-04-23T08:54:09.051Z,26.80
2018-04-23T08:56:36.984Z,26.76
2018-04-23T08:59:04.521Z,26.86
2018-04-23T09:01:32.100Z,27.04
2018-04-23T09:03:59.818Z,27.13
2018-04-23T09:06:27.391Z,27.09
2018-04-23T09:08:54.964Z,27.14
2018-04-23T09:11:22.689Z,26.91
2018-04-23T09:13:50.240Z,26.85
2018-04-23T09:16:17.790Z,26.85
2018-04-23T09:18:45.665Z,27.07
2018-04-23T09:21:13.198Z,27.30
2018-04-23T09:23:40.773Z,27.37
2018-04-23T09:26:08.456Z,27.38
2018-04-23T09:28:36.003Z,27.54
2018-04-23T09:31:03.572Z,27.63
2018-04-23T09:33:31.160Z,27.69
2018-04-23T09:35:58.725Z,27.53
2018-04-23T09:38:26.276Z,27.41
2018-04-23T09:40:54.157Z,27.31
2018-04-23T09:43:21.725Z,27.36
2018-04-23T09:45:49.263Z,27.36
2018-04-23T09:48:16.859Z,27.55
2018-04-23T09:50:44.407Z,27.36
2018-04-23T09:53:11.953Z,27.07
2018-04-23T09:55:39.531Z,26.91
2018-04-23T09:58:07.076Z,27.10
2018-04-23T10:00:34.656Z,27.32
2018-04-23T10:03:08.026Z,27.28
2018-04-23T10:05:35.580Z,26.96
2018-04-23T10:08:03.114Z,26.84
2018-04-23T12:19:08.703Z,28.11
2018-04-23T12:21:36.301Z,28.29
2018-04-23T12:24:03.867Z,28.44
2018-04-23T12:26:31.457Z,28.60
2018-04-23T12:28:59.010Z,28.70
2018-04-23T12:31:26.547Z,28.83
2018-04-23T12:33:54.223Z,28.93
2018-04-23T12:36:21.787Z,29.07
2018-04-23T12:38:49.319Z,29.18
2018-04-23T12:41:16.981Z,29.25
2018-04-23T12:43:44.548Z,28.89
2018-04-23T12:46:12.104Z,28.65
2018-04-23T12:48:39.700Z,28.62
2018-04-23T12:51:07.269Z,28.51
2018-04-23T12:53:34.817Z,28.50
2018-04-23T12:56:02.391Z,28.24
2018-04-23T12:58:29.989Z,28.19
2018-04-23T13:00:57.537Z,28.20
2018-04-23T13:03:25.143Z,28.34
2018-04-23T13:05:52.679Z,28.52
2018-04-23T13:08:20.221Z,28.66
2018-04-23T13:10:47.912Z,28.76
2018-04-23T13:13:15.443Z,28.70
2018-04-23T13:15:42.983Z,28.68
2018-04-23T13:18:10.639Z,28.60
2018-04-23T13:20:38.182Z,28.74
2018-04-23T13:23:05.721Z,28.85
2018-04-23T13:25:33.805Z,28.99
2018-04-23T13:28:01.362Z,29.08
2018-04-23T13:30:28.900Z,29.03
2018-04-23T13:32:56.464Z,28.96
2018-04-23T13:35:23.999Z,28.38
2018-04-23T13:37:51.532Z,28.33
2018-04-23T13:40:19.102Z,28.36
2018-04-23T13:42:46.652Z,28.47
2018-04-23T13:45:14.186Z,28.39
2018-04-23T13:47:41.749Z,28.38
2018-04-23T13:50:09.370Z,28.47
2018-04-23T13:52:36.881Z,28.50
2018-04-23T13:55:04.697Z,28.37
2018-04-23T13:57:32.267Z,28.30
2018-04-23T13:59:59.799Z,28.16
2018-04-23T14:02:27.694Z,28.15
2018-04-23T14:04:55.251Z,28.13
2018-04-23T14:07:22.780Z,28.11
2018-04-23T14:09:50.394Z,28.12
2018-04-23T14:12:17.927Z,28.06
2018-04-23T14:14:45.476Z,28.09
2018-04-23T14:17:13.196Z,28.08
2018-04-23T14:19:40.739Z,28.06
2018-04-23T14:22:08.287Z,28.10
2018-04-23T14:24:35.857Z,28.09
2018-04-23T14:27:03.404Z,27.92
2018-04-23T14:29:30.983Z,27.83
2018-04-23T14:31:58.538Z,27.79
2018-04-23T14:34:26.082Z,27.79
2018-04-23T14:36:53.613Z,27.68
2018-04-23T14:39:21.370Z,27.69
2018-04-23T14:41:48.913Z,27.66
2018-04-23T14:44:16.451Z,27.60
2018-04-23T14:46:44.123Z,27.59
2018-04-23T14:49:11.668Z,27.50
2018-04-23T14:51:39.227Z,27.49
2018-04-23T14:54:06.790Z,27.49
2018-04-23T14:56:34.361Z,27.45
2018-04-23T14:59:01.909Z,27.41
2018-04-23T15:01:29.553Z,27.39
2018-04-23T15:03:58.287Z,27.35
2018-04-23T15:06:25.827Z,27.32
2018-04-23T15:08:53.408Z,27.24
2018-04-23T15:11:20.964Z,27.17
2018-04-23T15:13:48.499Z,27.04
2018-04-23T15:16:17.197Z,26.97
2018-04-23T15:18:44.755Z,26.81
2018-04-23T15:21:12.310Z,26.78
2018-04-23T15:23:40.175Z,26.51
2018-04-23T15:26:07.731Z,26.50
2018-04-23T15:28:35.277Z,26.46
2018-04-23T15:31:02.876Z,26.49
2018-04-23T15:33:30.419Z,26.28
2018-04-23T15:35:57.970Z,26.06
2018-04-23T15:38:25.664Z,25.95
2018-04-23T15:40:53.217Z,25.86
2018-04-23T15:43:20.752Z,25.80
2018-04-23T15:45:48.301Z,25.64
2018-04-23T15:48:15.844Z,25.45
2018-04-23T15:50:43.440Z,25.40
2018-04-23T15:53:10.984Z,25.16
2018-04-23T15:55:38.524Z,25.14
2018-04-23T15:58:06.117Z,25.09
2018-04-23T16:00:33.675Z,25.03
2018-04-23T16:03:01.202Z,24.96
2018-04-23T16:05:28.808Z,24.88
2018-04-23T16:07:56.355Z,24.75
2018-04-23T16:10:23.921Z,24.67
2018-04-23T16:12:51.534Z,24.61
2018-04-23T16:15:19.085Z,24.53
2018-04-23T16:17:46.643Z,24.28
2018-04-23T16:20:14.224Z,24.14
2018-04-23T16:22:41.779Z,24.05
2018-04-23T16:25:09.325Z,23.90
2018-04-23T16:27:37.171Z,23.85
2018-04-23T16:30:04.776Z,23.79
2018-04-23T16:32:32.295Z,23.72
2018-04-23T16:34:59.865Z,23.69
2018-04-23T16:37:27.433Z,23.62
2018-04-23T16:39:54.977Z,23.49
2018-04-23T16:42:22.701Z,23.34
2018-04-23T16:44:50.545Z,23.32
2018-04-23T16:47:17.837Z,23.19
2018-04-23T16:49:45.433Z,23.08
2018-04-23T16:52:12.973Z,22.96
2018-04-23T16:54:40.551Z,22.78
2018-04-23T16:57:08.285Z,22.70
2018-04-23T16:59:35.840Z,22.60
2018-04-23T17:02:03.389Z,22.50
2018-04-23T17:04:31.081Z,22.30
2018-04-23T17:06:58.639Z,22.17
2018-04-23T17:09:26.184Z,22.06
2018-04-23T17:11:54.032Z,21.95
2018-04-23T17:14:21.565Z,21.83
2018-04-23T17:16:49.109Z,21.70
2018-04-23T17:19:16.772Z,21.52
2018-04-23T17:21:44.347Z,21.35
2018-04-23T17:24:11.895Z,21.22
2018-04-23T17:26:39.590Z,21.05
2018-04-23T17:29:07.149Z,20.91
2018-04-23T17:31:34.682Z,20.72
2018-04-23T17:34:02.369Z,20.59
2018-04-23T17:36:29.940Z,20.48
2018-04-23T17:38:57.514Z,20.26
2018-04-23T17:41:25.192Z,20.16
2018-04-23T17:43:52.745Z,20.03
2018-04-23T17:46:20.315Z,19.89
2018-04-23T17:48:47.879Z,19.80
2018-04-23T17:51:15.471Z,19.68
2018-04-23T17:53:43.020Z,19.58
2018-04-23T17:56:11.655Z,19.45
2018-04-23T17:58:39.214Z,19.32
2018-04-23T18:01:06.825Z,19.24
2018-04-23T18:03:34.520Z,19.16
2018-04-23T18:06:02.084Z,19.08
2018-04-23T18:08:29.628Z,19.03
2018-04-23T18:10:57.471Z,18.95
2018-04-23T18:13:25.093Z,18.85
2018-04-23T18:15:52.741Z,18.76
2018-04-23T18:18:20.325Z,18.70
2018-04-23T18:20:47.854Z,18.62
2018-04-23T18:23:15.400Z,18.51
2018-04-23T18:25:43.071Z,18.45
2018-04-23T18:28:10.661Z,18.41
2018-04-23T18:30:38.233Z,18.36
2018-04-23T18:33:05.844Z,18.30
2018-04-23T18:35:33.427Z,18.22
2018-04-23T18:38:01.011Z,18.16
2018-04-23T18:40:28.709Z,18.09
2018-04-23T18:42:56.346Z,18.00
2018-04-23T18:45:23.945Z,17.94
2018-04-23T18:47:51.840Z,17.89
2018-04-23T18:50:19.405Z,17.85
2018-04-23T18:52:47.021Z,17.85
2018-04-23T18:55:14.775Z,17.82
2018-04-23T18:57:42.324Z,17.74
2018-04-23T19:00:09.892Z,17.68
2018-04-23T19:02:37.592Z,17.61
2018-04-23T19:05:05.186Z,17.53
2018-04-23T19:07:32.761Z,17.49
2018-04-23T19:10:00.641Z,17.45
2018-04-23T19:12:28.190Z,17.41
2018-04-23T19:14:55.735Z,17.38
2018-04-23T19:17:23.454Z,17.32
2018-04-23T19:19:50.996Z,17.32
2018-04-23T19:22:18.565Z,17.28
2018-04-23T19:24:46.231Z,17.29
2018-04-23T19:27:13.840Z,17.22
2018-04-23T19:29:41.383Z,17.21
2018-04-23T19:32:08.973Z,17.18
2018-04-23T19:34:36.507Z,17.18
2018-04-23T19:37:04.069Z,17.18
2018-04-23T19:39:31.942Z,17.17
2018-04-23T19:41:59.521Z,17.12
2018-04-23T19:44:27.068Z,17.07
2018-04-23T19:46:54.649Z,17.04
2018-04-23T19:49:22.217Z,17.01
2018-04-23T19:51:49.779Z,16.96
2018-04-23T19:54:17.386Z,16.94
2018-04-23T19:56:44.959Z,16.87
2018-04-23T19:59:12.748Z,16.85
2018-04-23T20:01:40.357Z,16.82
2018-04-23T20:04:08.007Z,16.78
2018-04-23T20:06:35.577Z,16.79
2018-04-23T20:09:03.335Z,16.74
2018-04-23T20:11:30.889Z,16.71
2018-04-23T20:13:58.457Z,16.64
2018-04-23T20:16:26.041Z,16.59
2018-04-23T20:18:54.326Z,16.57
2018-04-23T20:21:21.976Z,16.56
2018-04-23T20:23:49.655Z,16.55
2018-04-23T20:26:17.220Z,16.49
2018-04-23T20:28:44.789Z,16.46
2018-04-23T20:31:12.508Z,16.44
2018-04-23T20:33:40.068Z,16.41
2018-04-23T20:36:07.632Z,16.34
2018-04-23T20:38:35.221Z,16.33
2018-04-23T20:41:02.773Z,16.33
2018-04-23T20:43:30.328Z,16.34
2018-04-23T20:45:57.878Z,16.31
2018-04-23T20:48:25.561Z,16.25
2018-04-23T20:50:53.298Z,16.21
2018-04-23T20:53:20.856Z,16.22
2018-04-23T20:55:48.395Z,16.18
2018-04-23T20:58:16.069Z,16.14
2018-04-23T21:00:43.643Z,16.12
2018-04-23T21:03:11.195Z,16.03
2018-04-23T21:05:38.898Z,15.95
2018-04-23T21:08:06.430Z,15.97
2018-04-23T21:10:33.987Z,15.93
2018-04-23T21:13:01.668Z,15.92
2018-04-23T21:15:29.221Z,15.90
2018-04-23T21:17:56.772Z,15.89
2018-04-23T21:20:24.347Z,15.83
2018-04-23T21:22:51.891Z,15.81
2018-04-23T21:25:19.421Z,15.82
2018-04-23T21:27:47.025Z,15.79
2018-04-23T21:30:14.553Z,15.72
2018-04-23T21:32:42.142Z,15.67
2018-04-23T21:35:09.812Z,15.62
2018-04-23T21:37:37.395Z,15.57
2018-04-23T21:40:04.936Z,15.51
2018-04-23T21:42:32.595Z,15.46
2018-04-23T21:45:00.192Z,15.42
2018-04-23T21:47:27.743Z,15.37
2018-04-23T21:49:55.426Z,15.32
2018-04-23T21:52:22.967Z,15.30
2018-04-23T21:54:50.508Z,15.28
2018-04-23T21:57:18.195Z,15.24
2018-04-23T21:59:45.751Z,15.27
2018-04-23T22:02:13.288Z,15.26
2018-04-23T22:04:41.036Z,15.23
2018-04-23T22:07:08.573Z,15.22
2018-04-23T22:09:36.118Z,15.21
2018-04-23T22:12:03.707Z,15.20
2018-04-23T22:14:31.256Z,15.19
2018-04-23T22:16:58.865Z,15.18
2018-04-23T22:19:26.438Z,15.16
2018-04-23T22:21:53.982Z,15.12
2018-04-23T22:24:21.513Z,15.09
2018-04-23T22:26:49.226Z,15.06
2018-04-23T22:29:16.783Z,15.03
2018-04-23T22:31:44.340Z,14.98
2018-04-23T22:34:12.046Z,14.96
2018-04-23T22:36:39.596Z,14.92
2018-04-23T22:39:07.136Z,14.90
2018-04-23T22:41:34.866Z,14.85
2018-04-23T22:44:02.458Z,14.83
2018-04-23T22:46:29.984Z,14.81
2018-04-23T22:48:57.532Z,14.77
2018-04-23T22:51:25.076Z,14.77
2018-04-23T22:53:52.606Z,14.71
2018-04-23T22:56:20.183Z,14.68
2018-04-23T22:58:47.731Z,14.63
2018-04-23T23:01:15.277Z,14.61
2018-04-23T23:03:42.947Z,14.57
2018-04-23T23:06:10.495Z,14.53
2018-04-23T23:08:38.013Z,14.51
2018-04-23T23:11:05.714Z,14.49
2018-04-23T23:13:33.259Z,14.46
2018-04-23T23:16:00.824Z,14.42
2018-04-23T23:18:28.548Z,14.39
2018-04-23T23:20:56.087Z,14.35
2018-04-23T23:23:23.636Z,14.32
2018-04-23T23:25:51.220Z,14.27
2018-04-23T23:28:18.763Z,14.29
2018-04-23T23:30:46.286Z,14.24
2018-04-23T23:33:13.871Z,14.21
2018-04-23T23:35:41.407Z,14.18
2018-04-23T23:38:08.968Z,14.16
2018-04-23T23:40:36.538Z,14.14
2018-04-23T23:43:04.089Z,14.07
2018-04-23T23:45:31.762Z,14.01
2018-04-23T23:47:59.614Z,13.98
2018-04-23T23:50:27.175Z,13.98
2018-04-23T23:52:54.716Z,13.94
2018-04-23T23:55:22.577Z,13.92
2018-04-23T23:57:50.117Z,13.89
